K42C Weather Reports


Display with metric or nautical units.
time (UTC)temp
F
wind
direction
speed
MPH
gust
MPH
rain 1hr
in
rain 24hr
in
rain mn
in
humidity
%
barometer
mb
20240522093602 75 210 8.0 11.0 0.00 0.00 0.00 69
20240522082252 77 173 9.0 10.0 0.00 0.00 0.00 72
20240522080257 77 160 8.0 7.0 0.00 0.00 0.00 72
20240522072304 77 184 6.0 11.0 0.00 0.00 0.00 73
20240522060954 78 187 7.0 8.0 0.00 0.00 0.00 72
20240522045648 75 165 8.0 10.0 0.00 0.00 0.00 77
20240522044330 75 190 7.0 7.0 0.00 0.00 0.00 79
20240522042331 75 155 7.0 9.0 0.00 0.00 0.00 80
20240522041654 75 159 6.0 6.0 0.00 0.00 0.00 80
20240522025707 74 150 8.0 7.0 0.00 0.04 0.00 80
20240522023708 75 156 8.0 7.0 0.00 0.04 0.00 78
20240522012401 78 132 8.0 7.0 0.00 0.04 0.00 72
20240522011043 78 24 7.0 7.0 0.00 0.04 0.00 71
20240522005725 79 122 8.0 8.0 0.00 0.04 0.00 70
20240522001050 80 107 7.0 6.0 0.00 0.04 0.00 69
20240521234415 81 115 7.0 10.0 0.00 0.04 0.00 71
20240521233737 81 118 7.0 6.0 0.00 0.04 0.00 71
20240521232419 81 100 8.0 6.0 0.00 0.04 0.00 71
20240521231739 81 132 8.0 9.0 0.00 0.04 0.00 71
20240521231102 81 127 10.0 8.0 0.00 0.04 0.00 70